createdAt,value
2022-08-16T00:00:23.609Z,54.13
2022-08-16T00:02:54.513Z,54.59
2022-08-16T00:05:27.554Z,54.46
2022-08-16T00:08:05.401Z,54.62
2022-08-16T00:10:37.335Z,54.73
2022-08-16T00:13:10.334Z,55.28
2022-08-16T00:15:51.708Z,55.26
2022-08-16T00:18:29.870Z,55.67
2022-08-16T00:21:03.889Z,55.89
2022-08-16T00:23:34.813Z,56.13
2022-08-16T00:26:35.977Z,56.30
2022-08-16T00:29:01.034Z,56.69
2022-08-16T00:31:59.577Z,57.02
2022-08-16T00:34:43.335Z,57.29
2022-08-16T00:37:18.685Z,57.46
2022-08-16T00:39:56.965Z,57.16
2022-08-16T00:42:30.381Z,57.52
2022-08-16T00:45:09.264Z,57.86
2022-08-16T00:47:49.417Z,57.93
2022-08-16T00:50:35.995Z,57.92
2022-08-16T00:53:08.142Z,57.96
2022-08-16T00:55:40.357Z,58.09
2022-08-16T00:58:16.388Z,58.06
2022-08-16T01:01:03.695Z,58.01
2022-08-16T01:03:43.614Z,58.13
2022-08-16T01:06:40.037Z,58.46
2022-08-16T01:09:12.293Z,58.52
2022-08-16T01:11:54.001Z,58.33
2022-08-16T01:14:30.796Z,58.79
2022-08-16T01:17:02.808Z,58.72
2022-08-16T01:19:41.139Z,58.99
2022-08-16T01:22:46.884Z,59.19
2022-08-16T01:25:15.992Z,59.56
2022-08-16T01:27:49.972Z,59.07
2022-08-16T01:30:26.450Z,59.33
2022-08-16T01:33:14.053Z,59.46
2022-08-16T01:35:53.318Z,58.98
2022-08-16T01:38:28.168Z,59.27
2022-08-16T01:41:05.701Z,59.12
2022-08-16T01:43:40.085Z,59.58
2022-08-16T01:46:37.292Z,59.24
2022-08-16T01:49:11.459Z,59.74
2022-08-16T01:51:43.712Z,59.32
2022-08-16T01:54:15.503Z,59.51
2022-08-16T01:56:49.164Z,59.48
2022-08-16T01:59:20.036Z,59.70
2022-08-16T02:02:00.226Z,59.29
2022-08-16T02:04:49.648Z,59.53
2022-08-16T02:07:23.953Z,59.31
2022-08-16T02:09:57.167Z,59.46
2022-08-16T02:12:50.788Z,59.71
2022-08-16T02:15:25.832Z,59.60
2022-08-16T02:17:56.377Z,59.60
2022-08-16T02:20:31.163Z,59.57
2022-08-16T02:23:05.951Z,60.09
2022-08-16T02:25:51.945Z,59.78
2022-08-16T02:28:27.229Z,59.72
2022-08-16T02:30:59.831Z,59.76
2022-08-16T02:33:44.505Z,59.85
2022-08-16T02:36:47.432Z,60.30
2022-08-16T02:39:11.753Z,60.39
2022-08-16T02:41:52.995Z,60.90
2022-08-16T02:44:28.607Z,60.74
2022-08-16T02:46:58.985Z,60.58
2022-08-16T02:49:58.200Z,61.08
2022-08-16T02:52:25.005Z,60.99
2022-08-16T02:55:00.051Z,60.97
2022-08-16T02:57:30.970Z,60.69
2022-08-16T03:00:33.989Z,60.94
2022-08-16T03:03:03.395Z,60.66
2022-08-16T03:05:34.307Z,60.38
2022-08-16T03:08:06.491Z,60.05
2022-08-16T03:10:59.216Z,60.34
2022-08-16T03:13:29.809Z,60.32
2022-08-16T03:16:02.645Z,60.14
2022-08-16T03:18:34.421Z,59.98
2022-08-16T03:21:10.710Z,59.73
2022-08-16T03:23:44.121Z,59.46
2022-08-16T03:26:15.359Z,59.66
2022-08-16T03:28:48.273Z,59.83
2022-08-16T03:31:21.492Z,59.78
2022-08-16T03:33:52.276Z,59.75
2022-08-16T03:36:32.629Z,59.57
2022-08-16T03:39:03.517Z,59.87
2022-08-16T03:41:49.662Z,59.84
2022-08-16T03:44:40.803Z,59.83
2022-08-16T03:47:19.234Z,59.96
2022-08-16T03:49:53.680Z,60.24
2022-08-16T03:52:31.482Z,60.30
2022-08-16T03:55:02.363Z,59.90
2022-08-16T03:57:36.281Z,60.21
2022-08-16T04:00:35.566Z,60.16
2022-08-16T04:03:09.813Z,60.19
2022-08-16T04:05:44.056Z,60.39
2022-08-16T04:08:22.970Z,60.42
2022-08-16T04:10:58.197Z,60.68
2022-08-16T04:14:01.188Z,60.96
2022-08-16T04:16:21.873Z,61.50
2022-08-16T04:19:02.132Z,61.23
2022-08-16T04:21:34.563Z,61.00
2022-08-16T04:24:08.030Z,61.14
2022-08-16T04:26:46.002Z,61.36
2022-08-16T04:29:23.485Z,61.15
2022-08-16T04:31:57.954Z,60.45
2022-08-16T04:34:35.637Z,60.50
2022-08-16T04:37:08.878Z,60.34
2022-08-16T04:39:46.465Z,60.07
2022-08-16T04:42:26.196Z,60.03
2022-08-16T04:44:58.585Z,60.18
2022-08-16T04:47:35.682Z,59.57
2022-08-16T04:50:10.886Z,59.47
2022-08-16T04:52:47.420Z,58.92
2022-08-16T04:55:20.161Z,58.73
2022-08-16T04:57:53.725Z,59.06
2022-08-16T05:00:34.109Z,58.34
2022-08-16T05:03:07.461Z,58.25
2022-08-16T05:05:55.615Z,58.30
2022-08-16T05:08:31.369Z,58.23
2022-08-16T05:11:05.577Z,57.95
2022-08-16T05:13:41.845Z,58.08
2022-08-16T05:16:19.937Z,57.84
2022-08-16T05:18:51.091Z,57.87
2022-08-16T05:21:24.977Z,58.20
2022-08-16T05:24:00.301Z,57.86
2022-08-16T05:26:34.253Z,57.47
2022-08-16T05:29:06.933Z,56.94
2022-08-16T05:31:44.313Z,55.36
2022-08-16T05:34:22.522Z,54.43
2022-08-16T05:36:58.702Z,52.66
2022-08-16T05:39:29.633Z,50.50
2022-08-16T05:42:03.641Z,49.17
2022-08-16T05:44:34.029Z,48.12
2022-08-16T05:47:04.485Z,48.14
2022-08-16T05:49:40.053Z,46.45
2022-08-16T05:52:17.431Z,44.30
2022-08-16T05:55:01.026Z,44.72
2022-08-16T05:57:34.421Z,44.93
2022-08-16T06:00:10.236Z,45.59
2022-08-16T06:02:42.102Z,45.95
2022-08-16T06:05:14.548Z,46.45
2022-08-16T06:07:58.394Z,46.56
2022-08-16T06:10:38.454Z,47.32
2022-08-16T06:13:28.615Z,47.45
2022-08-16T06:16:03.007Z,47.68
2022-08-16T06:18:33.531Z,47.06
2022-08-16T06:21:03.706Z,47.92
2022-08-16T06:23:38.010Z,47.52
2022-08-16T06:26:08.926Z,46.95
2022-08-16T06:28:39.272Z,47.37
2022-08-16T06:31:12.221Z,47.04
2022-08-16T06:33:44.769Z,46.90
2022-08-16T06:36:17.150Z,47.56
2022-08-16T06:38:56.604Z,47.24
2022-08-16T06:41:27.847Z,47.83
2022-08-16T06:43:58.997Z,47.48
2022-08-16T06:46:34.307Z,48.33
2022-08-16T06:49:05.502Z,47.69
2022-08-16T06:51:46.106Z,47.48
2022-08-16T06:54:21.232Z,47.88
2022-08-16T06:56:52.314Z,47.46
2022-08-16T06:59:25.910Z,47.13
2022-08-16T07:01:58.389Z,46.92
2022-08-16T07:04:33.337Z,46.39
2022-08-16T07:07:09.889Z,47.24
2022-08-16T07:09:43.562Z,46.62
2022-08-16T07:12:15.364Z,47.08
2022-08-16T07:14:45.661Z,46.58
2022-08-16T07:17:18.435Z,45.93
2022-08-16T07:20:29.755Z,45.71
2022-08-16T07:22:50.817Z,45.51
2022-08-16T07:25:26.050Z,45.12
2022-08-16T07:27:56.522Z,44.50
2022-08-16T07:30:39.785Z,43.07
2022-08-16T07:33:51.247Z,41.76
2022-08-16T07:36:10.221Z,41.43
2022-08-16T07:38:41.199Z,41.37
2022-08-16T07:41:14.925Z,40.36
2022-08-16T07:43:46.184Z,39.59
2022-08-16T07:46:38.725Z,38.66
2022-08-16T07:49:11.335Z,38.02
2022-08-16T07:51:42.277Z,35.96
2022-08-16T07:54:21.238Z,34.43
2022-08-16T07:57:05.177Z,34.71
2022-08-16T07:59:42.918Z,33.26
2022-08-16T08:02:20.405Z,34.15
2022-08-16T08:04:51.480Z,33.24
2022-08-16T08:07:21.743Z,32.11
2022-08-16T08:09:55.940Z,31.92
2022-08-16T08:12:31.235Z,31.10
2022-08-16T08:15:03.980Z,31.99
2022-08-16T08:17:42.610Z,30.93
2022-08-16T08:20:26.643Z,30.77
2022-08-16T08:23:00.733Z,29.73
2022-08-16T08:25:52.076Z,29.90
2022-08-16T08:28:25.701Z,30.64
2022-08-16T08:31:01.318Z,30.10
2022-08-16T08:33:33.965Z,29.30
2022-08-16T08:36:08.508Z,30.53
2022-08-16T08:38:43.831Z,31.26
2022-08-16T08:41:18.588Z,29.43
2022-08-16T08:43:52.353Z,31.25
2022-08-16T08:46:22.771Z,30.39
2022-08-16T08:49:02.107Z,30.28
2022-08-16T08:51:36.918Z,29.54
2022-08-16T08:54:09.504Z,29.95
2022-08-16T08:56:45.464Z,29.51
2022-08-16T08:59:20.481Z,29.42
2022-08-16T09:01:57.246Z,28.90
2022-08-16T09:04:29.560Z,28.15
2022-08-16T09:07:01.093Z,28.53
2022-08-16T09:09:38.587Z,29.00
2022-08-16T09:12:35.771Z,28.11
2022-08-16T09:15:06.023Z,28.20
2022-08-16T09:17:51.971Z,29.20
2022-08-16T09:20:25.734Z,29.06
2022-08-16T09:22:56.087Z,29.29
2022-08-16T09:25:34.306Z,29.15
2022-08-16T09:28:10.433Z,28.09
2022-08-16T09:30:45.662Z,28.89
2022-08-16T09:33:20.517Z,27.93
2022-08-16T09:35:54.450Z,28.41
2022-08-16T09:38:31.605Z,28.86
2022-08-16T09:41:14.542Z,29.03
2022-08-16T09:43:58.381Z,28.85
2022-08-16T09:46:48.169Z,29.22
2022-08-16T09:49:20.334Z,29.08
2022-08-16T09:51:55.574Z,29.81
2022-08-16T09:54:32.662Z,29.54
2022-08-16T09:57:03.112Z,29.39
2022-08-16T09:59:38.704Z,29.16
2022-08-16T10:02:26.772Z,28.30
2022-08-16T10:04:59.354Z,27.40
2022-08-16T10:07:44.450Z,27.50
2022-08-16T10:10:18.937Z,26.68
2022-08-16T10:13:16.374Z,26.48
2022-08-16T10:15:55.861Z,26.48
2022-08-16T10:19:00.988Z,25.86
2022-08-16T10:21:20.657Z,25.43
2022-08-16T10:23:54.970Z,25.92
2022-08-16T10:27:11.288Z,25.70
2022-08-16T10:29:19.960Z,28.11
2022-08-16T10:31:53.765Z,27.41
2022-08-16T10:40:45.582Z,25.95
2022-08-16T10:43:16.823Z,25.98
2022-08-16T10:46:00.176Z,25.00
2022-08-16T10:48:32.234Z,25.11
2022-08-16T10:51:03.242Z,24.34
2022-08-16T10:53:36.869Z,24.99
2022-08-16T10:56:52.141Z,24.19
2022-08-16T11:07:52.023Z,22.11
2022-08-16T11:19:12.450Z,22.62
2022-08-16T11:24:42.657Z,23.42
2022-08-16T11:27:19.567Z,25.45
2022-08-16T11:29:55.694Z,27.90
2022-08-16T11:32:32.087Z,27.97
2022-08-16T11:35:13.285Z,28.15
2022-08-16T11:40:52.684Z,34.79
2022-08-16T11:43:26.547Z,33.46
2022-08-16T11:46:44.100Z,34.39
2022-08-16T11:48:52.634Z,35.28
2022-08-16T11:51:22.798Z,36.87
2022-08-16T11:53:53.219Z,37.34
2022-08-16T11:56:39.685Z,36.13
2022-08-16T11:59:14.410Z,37.38
2022-08-16T12:01:59.144Z,38.09
2022-08-16T12:04:32.247Z,40.06
2022-08-16T12:07:03.872Z,40.73
2022-08-16T12:09:34.993Z,42.90
2022-08-16T12:12:11.760Z,42.34
2022-08-16T12:14:42.061Z,42.11
2022-08-16T12:17:19.597Z,41.97
2022-08-16T12:19:55.293Z,43.87
2022-08-16T12:22:27.536Z,44.06
2022-08-16T12:24:57.721Z,44.13
2022-08-16T12:27:29.320Z,43.60
2022-08-16T12:30:13.470Z,43.85
2022-08-16T12:32:54.939Z,42.86
2022-08-16T12:35:29.800Z,42.62
2022-08-16T12:38:01.418Z,41.52
2022-08-16T12:40:55.775Z,41.01
2022-08-16T12:43:31.236Z,40.69
2022-08-16T12:46:02.330Z,40.14
2022-08-16T12:48:48.046Z,39.82
2022-08-16T12:51:24.247Z,40.47
2022-08-16T12:53:58.129Z,40.43
2022-08-16T12:56:32.924Z,40.83
2022-08-16T12:59:05.081Z,40.92
2022-08-16T13:01:36.562Z,40.96
2022-08-16T13:04:11.890Z,40.91
2022-08-16T13:06:52.518Z,40.11
2022-08-16T13:09:26.079Z,38.30
2022-08-16T13:12:04.546Z,38.14
2022-08-16T13:14:38.625Z,37.67
2022-08-16T13:17:17.137Z,36.78
2022-08-16T13:20:11.170Z,36.06
2022-08-16T13:22:45.732Z,35.12
2022-08-16T13:25:21.345Z,35.49
2022-08-16T13:28:01.924Z,35.27
2022-08-16T13:30:41.884Z,35.05
2022-08-16T13:33:24.835Z,35.71
2022-08-16T13:36:03.889Z,35.24
2022-08-16T13:38:37.249Z,35.79
2022-08-16T13:41:09.867Z,35.64
2022-08-16T13:43:42.056Z,35.06
2022-08-16T13:46:12.394Z,33.33
2022-08-16T13:48:44.533Z,34.08
2022-08-16T13:51:24.024Z,34.52
2022-08-16T13:54:02.919Z,34.26
2022-08-16T13:56:38.946Z,34.20
2022-08-16T13:59:19.622Z,34.34
2022-08-16T14:01:55.272Z,34.77
2022-08-16T14:04:28.569Z,35.66
2022-08-16T14:07:04.359Z,36.61
2022-08-16T14:09:37.156Z,36.70
2022-08-16T14:12:17.646Z,37.14
2022-08-16T14:14:48.862Z,36.44
2022-08-16T14:17:23.285Z,35.60
2022-08-16T14:19:59.973Z,35.04
2022-08-16T14:22:40.040Z,36.06
2022-08-16T14:25:16.482Z,36.17
2022-08-16T14:27:52.460Z,36.37
2022-08-16T14:30:25.901Z,36.79
2022-08-16T14:32:58.051Z,36.76
2022-08-16T14:35:49.306Z,37.30
2022-08-16T14:38:24.295Z,37.81
2022-08-16T14:40:59.768Z,36.74
2022-08-16T14:43:32.729Z,36.88
2022-08-16T14:46:07.794Z,36.16
2022-08-16T14:48:38.054Z,36.68
2022-08-16T14:51:11.373Z,36.62
2022-08-16T14:53:45.664Z,35.80
2022-08-16T14:56:38.935Z,34.50
2022-08-16T14:59:11.597Z,34.93
2022-08-16T15:01:58.080Z,34.78
2022-08-16T15:04:39.532Z,34.91
2022-08-16T15:07:13.438Z,35.55
2022-08-16T15:10:00.778Z,35.87
2022-08-16T15:12:36.267Z,35.68
2022-08-16T15:15:12.560Z,35.00
2022-08-16T15:17:56.008Z,35.18
2022-08-16T15:20:30.000Z,35.51
2022-08-16T15:23:01.853Z,35.69
2022-08-16T15:25:41.412Z,35.04
2022-08-16T15:28:30.982Z,35.96
2022-08-16T15:31:03.916Z,33.55
2022-08-16T15:33:39.374Z,33.00
2022-08-16T15:36:19.314Z,32.38
2022-08-16T15:39:02.200Z,33.07
2022-08-16T15:42:06.991Z,33.45
2022-08-16T15:44:53.096Z,32.46
2022-08-16T15:47:27.115Z,31.89
2022-08-16T15:50:01.203Z,31.79
2022-08-16T15:52:36.353Z,31.00
2022-08-16T15:55:23.840Z,30.86
2022-08-16T15:58:35.648Z,30.58
2022-08-16T16:00:56.385Z,30.31
2022-08-16T16:03:28.584Z,30.21
2022-08-16T16:06:05.778Z,29.67
2022-08-16T16:08:41.562Z,29.86
2022-08-16T16:11:12.485Z,30.15
2022-08-16T16:13:46.081Z,29.75
2022-08-16T16:16:19.424Z,29.64
2022-08-16T16:18:50.067Z,29.10
2022-08-16T16:21:25.857Z,29.77
2022-08-16T16:24:03.120Z,30.09
2022-08-16T16:26:48.785Z,30.13
2022-08-16T16:29:21.621Z,30.30
2022-08-16T16:31:59.675Z,30.04
2022-08-16T16:34:32.302Z,30.70
2022-08-16T16:37:09.956Z,34.58
2022-08-16T16:39:41.241Z,35.24
2022-08-16T16:42:29.561Z,35.33
2022-08-16T16:45:03.991Z,35.53
2022-08-16T16:47:41.746Z,36.32
2022-08-16T16:50:19.030Z,37.45
2022-08-16T16:52:49.844Z,37.74
2022-08-16T16:55:22.297Z,38.76
2022-08-16T16:58:07.676Z,38.79
2022-08-16T17:00:51.869Z,39.33
2022-08-16T17:03:26.978Z,40.05
2022-08-16T17:06:08.809Z,38.84
2022-08-16T17:08:41.505Z,38.47
2022-08-16T17:11:12.686Z,38.84
2022-08-16T17:13:43.390Z,35.51
2022-08-16T17:16:18.830Z,34.72
2022-08-16T17:19:16.767Z,34.25
2022-08-16T17:21:42.097Z,34.29
2022-08-16T17:24:18.314Z,34.00
2022-08-16T17:26:49.974Z,34.44
2022-08-16T17:32:34.066Z,34.83
2022-08-16T17:35:21.950Z,34.80
2022-08-16T17:37:54.163Z,35.03
2022-08-16T17:39:26.963Z,34.67
2022-08-16T17:40:47.034Z,35.73
2022-08-16T17:43:22.247Z,36.76
2022-08-16T17:45:52.529Z,37.43
2022-08-16T17:48:26.107Z,37.85
2022-08-16T17:50:56.253Z,38.12
2022-08-16T17:53:26.927Z,38.39
2022-08-16T17:55:57.437Z,38.51
2022-08-16T17:58:28.013Z,39.00
2022-08-16T18:01:01.906Z,39.66
2022-08-16T18:04:02.722Z,39.46
2022-08-16T18:06:27.435Z,39.21
2022-08-16T18:09:03.410Z,39.28
2022-08-16T18:11:41.075Z,38.93
2022-08-16T18:14:13.361Z,38.68
2022-08-16T18:16:43.500Z,39.16
2022-08-16T18:19:16.921Z,39.25
2022-08-16T18:21:59.816Z,39.69
2022-08-16T18:24:30.407Z,39.85
2022-08-16T18:27:24.885Z,40.24
2022-08-16T18:29:52.239Z,40.43
2022-08-16T18:32:24.283Z,40.44
2022-08-16T18:34:57.470Z,40.87
2022-08-16T18:37:27.681Z,41.51
2022-08-16T18:39:59.375Z,41.84
2022-08-16T18:42:29.600Z,42.08
2022-08-16T18:44:59.678Z,42.44
2022-08-16T18:47:29.944Z,43.16
2022-08-16T18:50:09.181Z,43.52
2022-08-16T18:52:39.793Z,43.79
2022-08-16T18:55:14.376Z,44.54
2022-08-16T18:57:46.125Z,44.43
2022-08-16T19:00:18.320Z,45.22
2022-08-16T19:02:57.599Z,46.28
2022-08-16T19:05:37.054Z,46.83
2022-08-16T19:08:08.515Z,47.02
2022-08-16T19:10:40.758Z,48.41
2022-08-16T19:13:13.173Z,48.43
2022-08-16T19:15:44.528Z,48.80
2022-08-16T19:18:15.689Z,49.33
2022-08-16T19:20:49.699Z,49.19
2022-08-16T19:23:23.506Z,49.56
2022-08-16T19:25:57.396Z,49.86
2022-08-16T19:28:51.580Z,50.25
2022-08-16T19:31:26.209Z,50.14
2022-08-16T19:33:57.396Z,50.32
2022-08-16T19:36:35.967Z,50.24
2022-08-16T19:39:09.668Z,50.32
2022-08-16T19:41:41.368Z,51.03
2022-08-16T19:44:12.204Z,51.41
2022-08-16T19:46:45.038Z,51.56
2022-08-16T19:49:16.212Z,51.45
2022-08-16T19:51:51.681Z,51.90
2022-08-16T19:54:21.909Z,51.67
2022-08-16T19:56:52.024Z,51.90
2022-08-16T19:59:39.611Z,52.03
2022-08-16T20:02:35.532Z,51.70
2022-08-16T20:05:07.931Z,51.91
2022-08-16T20:07:40.668Z,51.70
2022-08-16T20:10:27.366Z,51.12
2022-08-16T20:13:02.420Z,51.14
2022-08-16T20:15:35.832Z,50.94
2022-08-16T20:18:21.392Z,50.92
2022-08-16T20:20:56.195Z,50.93
2022-08-16T20:23:28.989Z,51.50
2022-08-16T20:26:02.270Z,51.29
2022-08-16T20:28:52.990Z,51.35
2022-08-16T20:31:23.125Z,51.78
2022-08-16T20:33:53.615Z,51.19
2022-08-16T20:36:24.661Z,51.25
2022-08-16T20:38:59.855Z,51.11
2022-08-16T20:41:30.456Z,51.04
2022-08-16T20:44:01.125Z,50.83
2022-08-16T20:46:31.461Z,51.23
2022-08-16T20:49:01.634Z,51.27
2022-08-16T20:51:50.825Z,50.76
2022-08-16T20:54:26.217Z,50.84
2022-08-16T20:56:56.463Z,50.48
2022-08-16T20:59:26.644Z,50.60
2022-08-16T21:01:57.019Z,50.27
2022-08-16T21:04:30.044Z,50.13
2022-08-16T21:07:00.459Z,50.49
2022-08-16T21:09:36.031Z,50.54
2022-08-16T21:12:09.230Z,50.60
2022-08-16T21:14:43.112Z,50.47
2022-08-16T21:17:16.200Z,50.51
2022-08-16T21:19:48.758Z,50.30
2022-08-16T21:22:21.432Z,50.37
2022-08-16T21:24:54.316Z,50.50
2022-08-16T21:27:24.544Z,50.50
2022-08-16T21:29:55.807Z,50.72
2022-08-16T21:32:35.637Z,51.17
2022-08-16T21:35:18.731Z,51.59
2022-08-16T21:38:03.118Z,51.75
2022-08-16T21:40:42.687Z,51.86
2022-08-16T21:43:15.104Z,51.71
2022-08-16T21:45:47.267Z,51.97
2022-08-16T21:48:17.840Z,51.95
2022-08-16T21:51:04.505Z,51.78
2022-08-16T21:53:35.043Z,51.91
2022-08-16T21:56:09.808Z,51.98
2022-08-16T21:58:46.716Z,51.59
2022-08-16T22:01:24.094Z,51.76
2022-08-16T22:04:09.647Z,52.03
2022-08-16T22:06:45.922Z,52.28
2022-08-16T22:09:18.062Z,52.70
2022-08-16T22:11:51.073Z,52.89
2022-08-16T22:14:21.236Z,53.04
2022-08-16T22:16:51.348Z,53.38
2022-08-16T22:19:22.191Z,53.44
2022-08-16T22:21:52.372Z,53.79
2022-08-16T22:24:22.472Z,53.53
2022-08-16T22:26:55.179Z,53.84
2022-08-16T22:29:25.323Z,54.08
2022-08-16T22:31:55.408Z,54.25
2022-08-16T22:34:25.862Z,54.48
2022-08-16T22:36:55.970Z,54.30
2022-08-16T22:39:26.638Z,54.68
2022-08-16T22:41:59.410Z,54.61
2022-08-16T22:44:29.495Z,54.30
2022-08-16T22:46:59.542Z,54.50
2022-08-16T22:49:29.738Z,54.73
2022-08-16T22:52:07.382Z,55.03
2022-08-16T22:54:47.945Z,54.97
2022-08-16T22:57:21.638Z,54.96
2022-08-16T22:59:52.710Z,55.12
2022-08-16T23:02:23.221Z,55.00
2022-08-16T23:04:53.389Z,55.17
2022-08-16T23:07:23.512Z,55.31
2022-08-16T23:09:54.826Z,54.84
2022-08-16T23:12:30.439Z,55.19
2022-08-16T23:15:04.759Z,55.47
2022-08-16T23:17:35.326Z,55.50
2022-08-16T23:20:11.110Z,55.16
2022-08-16T23:23:19.819Z,55.50
2022-08-16T23:25:38.003Z,56.38
2022-08-16T23:28:11.196Z,56.02
2022-08-16T23:30:42.920Z,56.27
2022-08-16T23:33:15.823Z,56.08
2022-08-16T23:35:48.834Z,56.17
2022-08-16T23:38:37.992Z,56.25
2022-08-16T23:41:12.150Z,57.07
2022-08-16T23:43:46.424Z,57.27
2022-08-16T23:46:19.666Z,57.56
2022-08-16T23:49:56.622Z,58.10
2022-08-16T23:51:39.879Z,58.34
2022-08-16T23:54:11.661Z,58.50
2022-08-16T23:56:41.855Z,58.52
2022-08-16T23:59:14.609Z,58.40
